Time;durP1;ratioP1;P1;durP2;ratioP2;P2;SDS_P1;SDS_P2;PMS_P1;PMS_P2;Temp;Humidity;BMP_temperature;BMP_pressure;BME280_temperature;BME280_humidity;BME280_pressure;Samples;Min_cycle;Max_cycle;Signal;HPM_P1;HPM_P2
2024/01/09 00:02:19;;;;;;;4.00;1.23;;;;;;;;;;5029104;28;20123;-51
2024/01/09 00:04:46;;;;;;;4.95;1.50;;;;;;;;;;5025799;28;20092;-55
2024/01/09 00:07:12;;;;;;;2.13;0.88;;;;;;;;;;5027115;28;20268;-52
2024/01/09 00:09:39;;;;;;;3.55;1.55;;;;;;;;;;5029438;28;20053;-50
2024/01/09 00:12:09;;;;;;;3.20;1.27;;;;;;;;;;5024232;28;20193;-57
2024/01/09 00:14:35;;;;;;;3.17;1.48;;;;;;;;;;5020161;28;20052;-52
2024/01/09 00:17:02;;;;;;;3.00;1.35;;;;;;;;;;5034884;28;21780;-50
2024/01/09 00:19:29;;;;;;;2.83;1.38;;;;;;;;;;5033916;28;20060;-53
2024/01/09 00:21:56;;;;;;;2.45;0.95;;;;;;;;;;5034097;28;20067;-53
2024/01/09 00:24:23;;;;;;;3.15;1.05;;;;;;;;;;5015714;28;20056;-57
2024/01/09 00:26:50;;;;;;;2.35;0.95;;;;;;;;;;5032365;28;20053;-53
2024/01/09 00:29:18;;;;;;;3.53;1.33;;;;;;;;;;5037005;28;20048;-54
2024/01/09 00:31:45;;;;;;;4.28;1.30;;;;;;;;;;5039180;28;20052;-54
2024/01/09 00:34:12;;;;;;;4.88;1.52;;;;;;;;;;5064058;28;20045;-55
2024/01/09 00:36:42;;;;;;;3.40;1.48;;;;;;;;;;5037480;28;20124;-49
2024/01/09 00:39:09;;;;;;;3.75;1.38;;;;;;;;;;5034001;28;20087;-48
2024/01/09 00:41:35;;;;;;;5.40;1.55;;;;;;;;;;5037380;28;20214;-57
2024/01/09 00:44:02;;;;;;;4.20;1.65;;;;;;;;;;5027622;28;20235;-52
2024/01/09 00:46:30;;;;;;;2.80;1.05;;;;;;;;;;5033235;28;20072;-54
2024/01/09 00:48:57;;;;;;;4.38;1.35;;;;;;;;;;5051426;28;20052;-55
2024/01/09 00:51:24;;;;;;;3.28;1.42;;;;;;;;;;5066872;28;20068;-56
2024/01/09 00:53:54;;;;;;;5.10;1.67;;;;;;;;;;5066031;28;20068;-56
2024/01/09 00:56:21;;;;;;;19.90;5.28;;;;;;;;;;5032694;28;20053;-53
2024/01/09 00:58:48;;;;;;;8.32;2.80;;;;;;;;;;5037594;28;20117;-52
2024/01/09 01:01:15;;;;;;;4.72;1.55;;;;;;;;;;5028650;28;20053;-54
2024/01/09 01:03:43;;;;;;;3.58;1.63;;;;;;;;;;5021779;28;20055;-57
2024/01/09 01:06:10;;;;;;;;;;;;;;;;;;5015190;28;20054;-54
2024/01/09 01:08:37;;;;;;;5.82;1.25;;;;;;;;;;4985290;28;20052;-54
2024/01/09 01:11:04;;;;;;;2.00;0.80;;;;;;;;;;5023061;28;20157;-55
2024/01/09 01:13:31;;;;;;;2.25;1.00;;;;;;;;;;5021316;28;20078;-52
2024/01/09 01:15:57;;;;;;;1.30;0.55;;;;;;;;;;4945308;28;20043;-53
2024/01/09 01:18:24;;;;;;;2.42;0.80;;;;;;;;;;4955994;28;20058;-53
2024/01/09 01:20:52;;;;;;;0.73;0.57;;;;;;;;;;5030495;28;20273;-51
2024/01/09 01:23:21;;;;;;;2.65;0.88;;;;;;;;;;5022663;28;20086;-50
2024/01/09 01:25:48;;;;;;;;;;;;;;;;;;5016678;28;20054;-51
2024/01/09 01:28:14;;;;;;;2.85;1.33;;;;;;;;;;4951265;28;19933;-52
2024/01/09 01:30:41;;;;;;;2.60;1.10;;;;;;;;;;5033197;28;20089;-55
2024/01/09 01:33:08;;;;;;;5.13;1.38;;;;;;;;;;4953599;28;20051;-55
2024/01/09 01:35:34;;;;;;;1.27;0.80;;;;;;;;;;5030705;28;20127;-51
2024/01/09 01:38:02;;;;;;;2.60;0.90;;;;;;;;;;4951572;28;20173;-53
2024/01/09 01:40:29;;;;;;;1.95;1.00;;;;;;;;;;4956905;28;20186;-57
2024/01/09 01:42:57;;;;;;;2.58;1.20;;;;;;;;;;5023339;28;20058;-53
2024/01/09 01:45:27;;;;;;;3.80;1.38;;;;;;;;;;5018474;28;20070;-54
2024/01/09 01:48:00;;;;;;;1.45;0.50;;;;;;;;;;5018090;28;20047;-55
2024/01/09 01:50:28;;;;;;;2.88;1.20;;;;;;;;;;5031123;28;20153;-52
2024/01/09 01:52:55;;;;;;;3.78;1.30;;;;;;;;;;5038257;28;20078;-55
2024/01/09 01:55:25;;;;;;;3.45;1.77;;;;;;;;;;5011480;28;20062;-57
2024/01/09 01:57:53;;;;;;;2.45;1.20;;;;;;;;;;5053587;28;20047;-55
2024/01/09 02:00:21;;;;;;;1.58;0.73;;;;;;;;;;5018675;28;20123;-52
2024/01/09 02:02:48;;;;;;;2.45;0.95;;;;;;;;;;5021401;28;20078;-58
2024/01/09 02:05:17;;;;;;;3.47;0.95;;;;;;;;;;5009237;28;20047;-55
2024/01/09 02:07:46;;;;;;;2.83;0.98;;;;;;;;;;5021586;28;20054;-53
2024/01/09 02:10:13;;;;;;;3.05;1.25;;;;;;;;;;5021329;28;20060;-53
2024/01/09 02:12:42;;;;;;;1.67;0.95;;;;;;;;;;5022222;28;20062;-53
2024/01/09 02:15:10;;;;;;;3.67;1.33;;;;;;;;;;4951213;28;20188;-55
2024/01/09 02:17:38;;;;;;;3.15;1.30;;;;;;;;;;5023197;28;20051;-57
2024/01/09 02:20:07;;;;;;;4.13;1.33;;;;;;;;;;5017497;28;20074;-51
2024/01/09 02:22:33;;;;;;;4.18;1.05;;;;;;;;;;5018346;28;20150;-57
2024/01/09 02:25:03;;;;;;;1.60;0.80;;;;;;;;;;5018072;28;20067;-54
2024/01/09 02:27:39;;;;;;;5.80;1.48;;;;;;;;;;5040520;28;20158;-57
2024/01/09 02:30:09;;;;;;;2.10;1.05;;;;;;;;;;5014733;28;20065;-56
2024/01/09 02:32:37;;;;;;;4.57;1.23;;;;;;;;;;5021142;28;20252;-55
2024/01/09 02:35:04;;;;;;;3.47;1.02;;;;;;;;;;5017584;28;20108;-54
2024/01/09 02:37:31;;;;;;;2.22;1.23;;;;;;;;;;5020026;28;20142;-55
2024/01/09 02:39:58;;;;;;;4.38;1.38;;;;;;;;;;5004443;28;20116;-53
2024/01/09 02:42:25;;;;;;;3.13;1.30;;;;;;;;;;5004676;28;20058;-52
2024/01/09 02:44:53;;;;;;;2.15;1.02;;;;;;;;;;5014612;28;20053;-54
2024/01/09 02:47:21;;;;;;;;;;;;;;;;;;5019761;28;20051;-52
2024/01/09 02:49:48;;;;;;;2.45;1.10;;;;;;;;;;5006161;28;19926;-54
2024/01/09 02:52:16;;;;;;;3.05;1.30;;;;;;;;;;5017790;28;20287;-55
2024/01/09 02:54:42;;;;;;;2.92;1.25;;;;;;;;;;5028138;28;20189;-54
2024/01/09 02:57:10;;;;;;;4.05;1.42;;;;;;;;;;5016288;28;20091;-53
2024/01/09 02:59:36;;;;;;;3.15;1.30;;;;;;;;;;5017725;28;20099;-56
2024/01/09 03:02:03;;;;;;;2.95;1.20;;;;;;;;;;5013184;28;20061;-53
2024/01/09 03:04:31;;;;;;;3.67;1.25;;;;;;;;;;4979693;28;20784;-54
2024/01/09 03:06:58;;;;;;;3.88;0.65;;;;;;;;;;4972178;28;20598;-54
2024/01/09 03:09:25;;;;;;;2.22;0.88;;;;;;;;;;4956138;28;20046;-54
2024/01/09 03:11:53;;;;;;;1.90;0.80;;;;;;;;;;4955021;28;20278;-57
2024/01/09 03:14:22;;;;;;;2.05;0.90;;;;;;;;;;5023294;28;20197;-54
2024/01/09 03:16:49;;;;;;;1.92;0.70;;;;;;;;;;4961281;28;20137;-54
2024/01/09 03:19:16;;;;;;;1.00;0.55;;;;;;;;;;4953395;28;20050;-55
2024/01/09 03:21:44;;;;;;;3.03;1.00;;;;;;;;;;4995944;28;20117;-56
2024/01/09 03:24:13;;;;;;;3.00;1.40;;;;;;;;;;4991931;28;20200;-57
2024/01/09 03:26:40;;;;;;;2.28;0.60;;;;;;;;;;5003518;28;20065;-54
2024/01/09 03:29:06;;;;;;;4.35;1.27;;;;;;;;;;5006852;28;20061;-54
2024/01/09 03:31:33;;;;;;;5.93;2.00;;;;;;;;;;4973221;28;20066;-54
2024/01/09 03:34:00;;;;;;;5.25;1.85;;;;;;;;;;4961361;28;20051;-55
2024/01/09 03:36:30;;;;;;;3.38;1.40;;;;;;;;;;4953098;28;20177;-57
2024/01/09 03:38:58;;;;;;;7.25;1.80;;;;;;;;;;4961373;28;20168;-58
2024/01/09 03:41:25;;;;;;;4.63;1.58;;;;;;;;;;4968258;28;20127;-57
2024/01/09 03:43:52;;;;;;;2.55;0.98;;;;;;;;;;4959360;28;20050;-55
2024/01/09 03:46:18;;;;;;;3.42;1.55;;;;;;;;;;4969633;28;20077;-56
2024/01/09 03:48:45;;;;;;;4.65;1.10;;;;;;;;;;4977745;28;20046;-57
2024/01/09 03:51:12;;;;;;;6.68;1.70;;;;;;;;;;4959274;28;20126;-52
2024/01/09 03:53:38;;;;;;;4.00;1.48;;;;;;;;;;4994776;28;20289;-54
2024/01/09 03:56:07;;;;;;;3.00;1.48;;;;;;;;;;4985154;28;20081;-56
2024/01/09 03:58:33;;;;;;;1.63;0.70;;;;;;;;;;5024602;28;20089;-53
2024/01/09 04:01:00;;;;;;;1.48;0.90;;;;;;;;;;4957466;28;20123;-53
2024/01/09 04:03:27;;;;;;;3.00;1.08;;;;;;;;;;5045952;28;20053;-56
2024/01/09 04:05:55;;;;;;;3.50;1.40;;;;;;;;;;5043463;28;20133;-53
2024/01/09 04:08:21;;;;;;;1.77;0.65;;;;;;;;;;5037306;28;20210;-54
2024/01/09 04:10:48;;;;;;;4.00;1.25;;;;;;;;;;5054840;28;20053;-54
2024/01/09 04:13:16;;;;;;;3.35;1.42;;;;;;;;;;5040051;28;20049;-56
2024/01/09 04:15:43;;;;;;;0.90;0.45;;;;;;;;;;5070108;28;20051;-53
2024/01/09 04:18:09;;;;;;;1.92;0.90;;;;;;;;;;5030636;28;20242;-50
2024/01/09 04:20:36;;;;;;;5.75;1.00;;;;;;;;;;5044137;28;20044;-50
2024/01/09 04:23:02;;;;;;;5.22;1.70;;;;;;;;;;5027359;28;20079;-58
2024/01/09 04:25:29;;;;;;;1.23;0.70;;;;;;;;;;5040160;28;20049;-52
2024/01/09 04:27:56;;;;;;;3.42;1.33;;;;;;;;;;5035467;28;20188;-54
2024/01/09 04:30:24;;;;;;;0.98;0.82;;;;;;;;;;5044404;28;20149;-55
2024/01/09 04:32:51;;;;;;;2.92;1.10;;;;;;;;;;5046656;28;20049;-56
2024/01/09 04:35:18;;;;;;;3.63;1.73;;;;;;;;;;5065527;28;20068;-55
2024/01/09 04:37:45;;;;;;;4.28;1.63;;;;;;;;;;5041371;28;20061;-50
2024/01/09 04:40:11;;;;;;;1.92;0.68;;;;;;;;;;5046378;28;20139;-56
2024/01/09 04:42:38;;;;;;;3.33;1.27;;;;;;;;;;5068007;28;20124;-58
2024/01/09 04:45:05;;;;;;;2.60;1.23;;;;;;;;;;5054004;28;20164;-55
2024/01/09 04:47:33;;;;;;;1.88;1.05;;;;;;;;;;5039006;28;20049;-55
2024/01/09 04:50:00;;;;;;;5.18;1.40;;;;;;;;;;5031322;28;20041;-55
2024/01/09 04:52:27;;;;;;;2.33;1.27;;;;;;;;;;5046453;28;20049;-49
2024/01/09 04:54:53;;;;;;;3.53;1.13;;;;;;;;;;5038488;28;20113;-50
2024/01/09 04:57:20;;;;;;;2.40;1.05;;;;;;;;;;5031742;28;20076;-51
2024/01/09 04:59:49;;;;;;;2.40;1.15;;;;;;;;;;5047748;28;20083;-55
2024/01/09 05:02:16;;;;;;;1.58;0.95;;;;;;;;;;5007681;28;20997;-57
2024/01/09 05:04:44;;;;;;;2.50;0.80;;;;;;;;;;4932191;28;20162;-51
2024/01/09 05:07:11;;;;;;;1.42;0.93;;;;;;;;;;4936800;28;20047;-52
2024/01/09 05:09:38;;;;;;;3.90;1.33;;;;;;;;;;4936831;28;20060;-54
2024/01/09 05:12:05;;;;;;;3.30;1.48;;;;;;;;;;4930112;28;20051;-52
2024/01/09 05:14:31;;;;;;;1.92;0.55;;;;;;;;;;4924455;28;20087;-54
2024/01/09 05:16:58;;;;;;;1.33;0.73;;;;;;;;;;4935712;28;20043;-55
2024/01/09 05:19:24;;;;;;;3.40;1.23;;;;;;;;;;4935191;28;20146;-55
2024/01/09 05:21:52;;;;;;;2.50;0.57;;;;;;;;;;4933873;28;20051;-54
2024/01/09 05:24:19;;;;;;;3.67;1.40;;;;;;;;;;4928252;28;20156;-53
2024/01/09 05:26:45;;;;;;;3.53;1.08;;;;;;;;;;4969685;28;20072;-55
2024/01/09 05:29:12;;;;;;;2.55;1.13;;;;;;;;;;4932951;28;20130;-50
2024/01/09 05:31:43;;;;;;;3.75;1.50;;;;;;;;;;4964827;28;20051;-54
2024/01/09 05:34:10;;;;;;;5.57;1.70;;;;;;;;;;4958793;28;20365;-56
2024/01/09 05:36:36;;;;;;;3.80;1.45;;;;;;;;;;4935060;28;20070;-53
2024/01/09 05:39:04;;;;;;;3.35;1.38;;;;;;;;;;4966932;28;20067;-55
2024/01/09 05:41:31;;;;;;;5.05;1.67;;;;;;;;;;4937687;28;20078;-56
2024/01/09 05:43:58;;;;;;;2.85;1.30;;;;;;;;;;4947802;28;20138;-55
2024/01/09 05:46:25;;;;;;;3.88;1.80;;;;;;;;;;4936757;28;20055;-56
2024/01/09 05:48:52;;;;;;;3.80;1.75;;;;;;;;;;4933807;28;20059;-54
2024/01/09 05:51:18;;;;;;;3.08;0.98;;;;;;;;;;4935479;28;20062;-56
2024/01/09 05:53:47;;;;;;;4.18;1.27;;;;;;;;;;4926709;28;20121;-57
2024/01/09 05:56:15;;;;;;;5.82;2.15;;;;;;;;;;4929597;28;20117;-51
2024/01/09 05:58:41;;;;;;;4.10;1.60;;;;;;;;;;4935354;28;20129;-51
2024/01/09 06:01:08;;;;;;;6.72;1.77;;;;;;;;;;4931732;28;20133;-54
2024/01/09 06:03:34;;;;;;;3.40;1.40;;;;;;;;;;5025288;28;20198;-54
2024/01/09 06:06:01;;;;;;;1.65;1.00;;;;;;;;;;5046521;28;20125;-55
2024/01/09 06:08:28;;;;;;;1.23;0.77;;;;;;;;;;5042209;28;20053;-55
2024/01/09 06:10:55;;;;;;;3.72;1.90;;;;;;;;;;5033617;28;20053;-53
2024/01/09 06:13:22;;;;;;;4.72;1.58;;;;;;;;;;5037867;28;20111;-56
2024/01/09 06:15:53;;;;;;;4.05;1.40;;;;;;;;;;5029008;28;20106;-56
2024/01/09 06:18:19;;;;;;;1.48;0.88;;;;;;;;;;5051720;28;21359;-54
2024/01/09 06:20:46;;;;;;;4.70;1.65;;;;;;;;;;5059172;28;20055;-54
2024/01/09 06:23:13;;;;;;;2.40;0.82;;;;;;;;;;5046275;28;20061;-53
2024/01/09 06:25:39;;;;;;;6.47;1.63;;;;;;;;;;5028112;28;20052;-54
2024/01/09 06:28:07;;;;;;;5.78;1.77;;;;;;;;;;5024196;28;20144;-55
2024/01/09 06:30:35;;;;;;;3.78;1.42;;;;;;;;;;5045152;28;20147;-54
2024/01/09 06:33:02;;;;;;;4.70;2.08;;;;;;;;;;5030789;28;20087;-57
2024/01/09 06:35:29;;;;;;;4.80;1.50;;;;;;;;;;5024717;28;20056;-53
2024/01/09 06:37:56;;;;;;;8.65;1.98;;;;;;;;;;5061687;28;20056;-58
2024/01/09 06:40:24;;;;;;;4.65;1.52;;;;;;;;;;5053071;28;20130;-55
2024/01/09 06:42:50;;;;;;;4.47;1.73;;;;;;;;;;5033292;28;20067;-56
2024/01/09 06:45:17;;;;;;;4.72;1.45;;;;;;;;;;5047868;28;20113;-56
2024/01/09 06:47:45;;;;;;;4.30;1.17;;;;;;;;;;5034501;28;20091;-55
2024/01/09 06:50:12;;;;;;;5.53;1.27;;;;;;;;;;5025263;28;20227;-53
2024/01/09 06:52:39;;;;;;;6.68;1.30;;;;;;;;;;5033053;28;20102;-55
2024/01/09 06:55:06;;;;;;;3.35;1.10;;;;;;;;;;5061880;28;20049;-51
2024/01/09 06:57:33;;;;;;;1.52;0.43;;;;;;;;;;5034058;28;20055;-58
2024/01/09 06:59:59;;;;;;;5.78;1.88;;;;;;;;;;5062272;28;20053;-57
2024/01/09 07:02:26;;;;;;;8.10;2.05;;;;;;;;;;4987612;28;20048;-50
2024/01/09 07:04:54;;;;;;;4.65;1.67;;;;;;;;;;4929833;28;20078;-55
2024/01/09 07:07:21;;;;;;;3.35;1.35;;;;;;;;;;4934581;28;20132;-50
2024/01/09 07:09:48;;;;;;;4.43;1.58;;;;;;;;;;4934365;28;20100;-54
2024/01/09 07:12:16;;;;;;;4.53;1.88;;;;;;;;;;4932801;28;20051;-54
2024/01/09 07:14:43;;;;;;;1.35;0.80;;;;;;;;;;4930173;28;20070;-51
2024/01/09 07:17:10;;;;;;;2.55;1.33;;;;;;;;;;4932837;28;20047;-51
2024/01/09 07:19:37;;;;;;;5.53;1.27;;;;;;;;;;4935287;28;20109;-56
2024/01/09 07:22:05;;;;;;;6.78;2.58;;;;;;;;;;4926788;28;20208;-55
2024/01/09 07:24:32;;;;;;;3.78;1.52;;;;;;;;;;4931425;28;20059;-55
2024/01/09 07:26:58;;;;;;;7.78;2.08;;;;;;;;;;4938752;28;20054;-54
2024/01/09 07:29:25;;;;;;;5.53;1.40;;;;;;;;;;4964249;28;20046;-53
2024/01/09 07:31:52;;;;;;;2.17;0.90;;;;;;;;;;4932816;28;20142;-58
2024/01/09 07:34:18;;;;;;;2.67;1.33;;;;;;;;;;4925894;28;20111;-55
2024/01/09 07:36:45;;;;;;;5.00;2.05;;;;;;;;;;4935577;28;20053;-48
2024/01/09 07:39:13;;;;;;;4.60;1.88;;;;;;;;;;4968686;28;20071;-52
2024/01/09 07:41:40;;;;;;;4.35;1.88;;;;;;;;;;4927365;28;20043;-53
2024/01/09 07:44:07;;;;;;;7.72;2.22;;;;;;;;;;4947774;28;20067;-53
2024/01/09 07:46:34;;;;;;;6.05;2.10;;;;;;;;;;4963204;28;20144;-57
2024/01/09 07:49:00;;;;;;;3.45;1.50;;;;;;;;;;4968880;28;20043;-50
2024/01/09 07:51:27;;;;;;;14.43;5.05;;;;;;;;;;4968680;28;20047;-55
2024/01/09 07:53:54;;;;;;;5.07;1.55;;;;;;;;;;4917134;28;20061;-54
2024/01/09 07:56:23;;;;;;;6.72;2.78;;;;;;;;;;4932921;28;20138;-54
2024/01/09 07:58:51;;;;;;;5.47;2.15;;;;;;;;;;4936637;28;20303;-55
2024/01/09 08:01:18;;;;;;;;;;;;;;;;;;4937390;28;20071;-57
2024/01/09 08:03:45;;;;;;;5.70;1.38;;;;;;;;;;5018857;28;19925;-57
2024/01/09 08:06:14;;;;;;;1.30;0.60;;;;;;;;;;5029181;28;20157;-56
2024/01/09 08:08:41;;;;;;;6.25;1.88;;;;;;;;;;5036406;28;20086;-53
2024/01/09 08:11:08;;;;;;;6.40;2.20;;;;;;;;;;5037979;28;20048;-53
2024/01/09 08:13:37;;;;;;;3.90;1.75;;;;;;;;;;5033856;28;20165;-56
2024/01/09 08:16:04;;;;;;;7.88;2.17;;;;;;;;;;5033039;28;20107;-51
2024/01/09 08:18:32;;;;;;;2.25;0.93;;;;;;;;;;5039126;28;20060;-52
2024/01/09 08:20:59;;;;;;;6.10;1.40;;;;;;;;;;5037956;28;20072;-53
2024/01/09 08:23:26;;;;;;;2.42;1.02;;;;;;;;;;5036854;28;20045;-53
2024/01/09 08:25:56;;;;;;;3.67;0.73;;;;;;;;;;5015919;28;20080;-52
2024/01/09 08:28:23;;;;;;;3.30;1.30;;;;;;;;;;5037670;28;20060;-57
2024/01/09 08:30:51;;;;;;;4.53;1.70;;;;;;;;;;5037022;28;20045;-50
2024/01/09 08:33:17;;;;;;;2.80;1.17;;;;;;;;;;5037442;28;20144;-54
2024/01/09 08:35:49;;;;;;;2.10;0.90;;;;;;;;;;5014610;28;20068;-51
2024/01/09 08:38:16;;;;;;;13.10;3.13;;;;;;;;;;5033939;28;20955;-53
2024/01/09 08:40:43;;;;;;;6.45;2.25;;;;;;;;;;5035443;28;21343;-51
2024/01/09 08:43:10;;;;;;;7.90;2.17;;;;;;;;;;5052380;28;20122;-55
2024/01/09 08:45:37;;;;;;;6.22;2.47;;;;;;;;;;5031939;28;20140;-53
2024/01/09 08:48:06;;;;;;;2.67;1.17;;;;;;;;;;5034466;28;20107;-52
2024/01/09 08:50:42;;;;;;;8.18;2.03;;;;;;;;;;5056556;28;20060;-55
2024/01/09 08:53:09;;;;;;;3.55;1.33;;;;;;;;;;5041167;28;20061;-55
2024/01/09 08:55:35;;;;;;;5.72;1.40;;;;;;;;;;5036619;28;20124;-56
2024/01/09 08:58:02;;;;;;;5.60;2.17;;;;;;;;;;5032807;28;20072;-51
2024/01/09 09:00:29;;;;;;;3.53;1.40;;;;;;;;;;5037774;28;20048;-53
2024/01/09 09:02:55;;;;;;;5.03;1.83;;;;;;;;;;4968229;28;20067;-55
2024/01/09 09:05:24;;;;;;;6.13;1.55;;;;;;;;;;4929304;28;20054;-53
2024/01/09 09:07:54;;;;;;;2.00;0.95;;;;;;;;;;4932835;28;20051;-55
2024/01/09 09:10:21;;;;;;;2.10;1.00;;;;;;;;;;4936163;28;20055;-53
2024/01/09 09:12:48;;;;;;;2.33;0.98;;;;;;;;;;5017758;28;20059;-55
2024/01/09 09:15:15;;;;;;;11.20;1.63;;;;;;;;;;4929957;28;20051;-53
2024/01/09 09:17:42;;;;;;;4.60;1.60;;;;;;;;;;4967677;28;20074;-54
2024/01/09 09:20:11;;;;;;;5.25;1.55;;;;;;;;;;4929949;28;20066;-50
2024/01/09 09:22:39;;;;;;;2.10;0.98;;;;;;;;;;4935685;28;20051;-52
2024/01/09 09:25:07;;;;;;;;;;;;;;;;;;4926228;28;20134;-51
2024/01/09 09:27:34;;;;;;;5.68;2.00;;;;;;;;;;4964196;28;20090;-54
2024/01/09 09:30:01;;;;;;;3.85;1.50;;;;;;;;;;4962953;28;20456;-52
2024/01/09 09:32:28;;;;;;;1.35;0.68;;;;;;;;;;4935705;28;20048;-54
2024/01/09 09:34:55;;;;;;;6.35;2.30;;;;;;;;;;4922412;28;20085;-51
2024/01/09 09:37:22;;;;;;;3.63;1.45;;;;;;;;;;4932097;28;20160;-56
2024/01/09 09:39:50;;;;;;;7.28;1.83;;;;;;;;;;4965812;28;20140;-56
2024/01/09 09:42:18;;;;;;;;;;;;;;;;;;4933678;28;20055;-54
2024/01/09 09:44:48;;;;;;;2.92;1.38;;;;;;;;;;4930379;28;20021;-54
2024/01/09 09:47:15;;;;;;;4.68;1.75;;;;;;;;;;4934704;28;20055;-49
2024/01/09 09:49:45;;;;;;;4.32;1.38;;;;;;;;;;4935572;28;20047;-52
2024/01/09 09:52:13;;;;;;;3.95;1.65;;;;;;;;;;4931389;28;20043;-50
2024/01/09 09:54:40;;;;;;;4.82;1.70;;;;;;;;;;4921908;28;20125;-54
2024/01/09 09:57:09;;;;;;;2.42;1.08;;;;;;;;;;4964928;28;20055;-51
2024/01/09 09:59:36;;;;;;;3.47;1.67;;;;;;;;;;4947641;28;20139;-54
2024/01/09 10:02:05;;;;;;;4.45;1.40;;;;;;;;;;4931782;28;20125;-49
2024/01/09 10:04:42;;;;;;;5.82;1.77;;;;;;;;;;4960694;28;20065;-51
2024/01/09 10:07:10;;;;;;;3.40;1.73;;;;;;;;;;4936132;28;20043;-50
2024/01/09 10:09:45;;;;;;;3.20;1.30;;;;;;;;;;4934451;28;20066;-52
2024/01/09 10:12:13;;;;;;;3.90;1.02;;;;;;;;;;4928540;28;20047;-54
2024/01/09 10:15:02;;;;;;;9.93;1.35;;;;;;;;;;4922405;28;20066;-53
2024/01/09 10:17:29;;;;;;;2.88;1.25;;;;;;;;;;4933929;28;20052;-52
2024/01/09 10:19:56;;;;;;;3.08;1.23;;;;;;;;;;4932034;28;20054;-54
2024/01/09 10:22:24;;;;;;;3.30;1.23;;;;;;;;;;4927036;28;20043;-53
2024/01/09 10:24:51;;;;;;;3.00;1.42;;;;;;;;;;4924047;28;20212;-50
2024/01/09 10:27:21;;;;;;;4.63;1.60;;;;;;;;;;4967467;28;20078;-57
2024/01/09 10:29:51;;;;;;;3.88;1.65;;;;;;;;;;4935385;28;20125;-53
2024/01/09 10:32:18;;;;;;;2.70;1.33;;;;;;;;;;4958770;28;20058;-53
2024/01/09 10:34:45;;;;;;;4.72;1.92;;;;;;;;;;4923009;28;20055;-56
2024/01/09 10:37:13;;;;;;;3.92;1.67;;;;;;;;;;4934080;28;20048;-52
2024/01/09 10:39:40;;;;;;;;;;;;;;;;;;4935981;28;20063;-56
2024/01/09 10:42:09;;;;;;;1.30;0.68;;;;;;;;;;4930086;28;20017;-55
2024/01/09 10:44:42;;;;;;;6.45;1.45;;;;;;;;;;4961476;28;20047;-55
2024/01/09 10:47:10;;;;;;;6.97;1.80;;;;;;;;;;4931629;28;20136;-49
2024/01/09 10:49:39;;;;;;;;;;;;;;;;;;4936985;28;20066;-54
2024/01/09 10:52:11;;;;;;;1.23;0.70;;;;;;;;;;4928711;28;19933;-56
2024/01/09 10:54:40;;;;;;;6.15;0.90;;;;;;;;;;4922323;28;20058;-55
2024/01/09 10:57:08;;;;;;;6.00;1.55;;;;;;;;;;4929623;28;20074;-52
2024/01/09 10:59:39;;;;;;;1.17;0.80;;;;;;;;;;4933590;28;20047;-54
2024/01/09 11:02:05;;;;;;;3.58;1.52;;;;;;;;;;4942055;28;20272;-55
2024/01/09 11:04:32;;;;;;;4.93;1.25;;;;;;;;;;4950944;28;20078;-55
2024/01/09 11:06:59;;;;;;;4.10;1.58;;;;;;;;;;4965190;28;20137;-56
2024/01/09 11:09:28;;;;;;;1.80;0.70;;;;;;;;;;5029109;28;20381;-52
2024/01/09 11:11:56;;;;;;;4.60;1.38;;;;;;;;;;5008382;28;20042;-49
2024/01/09 11:14:25;;;;;;;3.75;1.58;;;;;;;;;;5027552;28;20043;-53
2024/01/09 11:16:54;;;;;;;2.53;1.02;;;;;;;;;;5011669;28;20327;-53
2024/01/09 11:19:21;;;;;;;7.45;1.42;;;;;;;;;;4979929;28;20179;-54
2024/01/09 11:21:49;;;;;;;4.13;1.88;;;;;;;;;;5021752;28;20070;-54
2024/01/09 11:24:16;;;;;;;3.38;1.27;;;;;;;;;;4930759;28;20083;-55
2024/01/09 11:26:43;;;;;;;2.28;0.75;;;;;;;;;;4975184;28;20069;-51
2024/01/09 11:29:09;;;;;;;1.95;0.88;;;;;;;;;;4955657;28;20053;-51
2024/01/09 11:31:36;;;;;;;4.63;1.67;;;;;;;;;;5028282;28;20050;-53
2024/01/09 11:34:05;;;;;;;5.30;1.42;;;;;;;;;;4954385;28;20093;-55
2024/01/09 11:36:33;;;;;;;2.97;1.20;;;;;;;;;;4956377;28;20212;-50
2024/01/09 11:39:03;;;;;;;2.53;1.17;;;;;;;;;;4994318;28;20070;-50
2024/01/09 11:41:34;;;;;;;3.53;1.27;;;;;;;;;;5018695;28;20042;-50
2024/01/09 11:44:02;;;;;;;3.55;1.33;;;;;;;;;;5010191;28;20069;-53
2024/01/09 11:46:31;;;;;;;2.88;1.42;;;;;;;;;;5007684;28;20054;-51
2024/01/09 11:48:59;;;;;;;4.35;1.23;;;;;;;;;;4954037;28;20042;-55
2024/01/09 11:51:29;;;;;;;3.92;1.33;;;;;;;;;;4972511;28;20069;-54
2024/01/09 11:53:58;;;;;;;4.13;1.40;;;;;;;;;;4955374;28;20064;-51
2024/01/09 11:56:26;;;;;;;4.40;1.15;;;;;;;;;;4987613;28;20065;-55
2024/01/09 11:58:53;;;;;;;3.50;0.90;;;;;;;;;;4955655;28;20050;-48
2024/01/09 12:01:21;;;;;;;2.25;0.73;;;;;;;;;;4969835;28;20042;-53
2024/01/09 12:03:54;;;;;;;2.38;0.82;;;;;;;;;;4965444;28;20120;-56
2024/01/09 12:06:23;;;;;;;3.47;1.10;;;;;;;;;;4932852;28;20055;-53
2024/01/09 12:08:52;;;;;;;3.83;1.35;;;;;;;;;;5031840;28;20046;-50
2024/01/09 12:11:19;;;;;;;4.10;1.20;;;;;;;;;;4967690;28;20066;-50
2024/01/09 12:13:48;;;;;;;4.28;1.15;;;;;;;;;;4959573;28;20069;-49
2024/01/09 12:16:19;;;;;;;2.65;1.08;;;;;;;;;;4966541;28;20185;-54
2024/01/09 12:18:50;;;;;;;3.33;1.00;;;;;;;;;;4958518;28;20110;-51
2024/01/09 12:21:20;;;;;;;2.85;1.08;;;;;;;;;;4976495;28;20057;-55
2024/01/09 12:23:47;;;;;;;0.43;0.20;;;;;;;;;;4955578;28;20058;-56
2024/01/09 12:26:19;;;;;;;3.73;1.33;;;;;;;;;;5024367;28;20090;-52
2024/01/09 12:28:47;;;;;;;1.23;0.60;;;;;;;;;;4968687;28;20234;-47
2024/01/09 12:31:17;;;;;;;3.00;1.02;;;;;;;;;;4976540;28;20046;-52
2024/01/09 12:33:44;;;;;;;1.17;0.63;;;;;;;;;;4967851;28;20054;-52
2024/01/09 12:36:11;;;;;;;3.08;0.93;;;;;;;;;;4975478;28;20129;-55
2024/01/09 12:38:38;;;;;;;6.00;1.70;;;;;;;;;;4977715;28;20161;-50
2024/01/09 12:41:04;;;;;;;3.70;1.48;;;;;;;;;;4987794;28;20046;-57
2024/01/09 12:43:33;;;;;;;3.35;1.45;;;;;;;;;;4955588;28;20061;-57
2024/01/09 12:46:01;;;;;;;2.15;0.98;;;;;;;;;;4943187;28;20055;-51
2024/01/09 12:48:28;;;;;;;3.25;1.33;;;;;;;;;;4969043;28;20065;-55
2024/01/09 12:50:59;;;;;;;2.42;1.10;;;;;;;;;;4965736;28;20051;-55
2024/01/09 12:53:28;;;;;;;4.57;1.52;;;;;;;;;;4955876;28;20046;-55
2024/01/09 12:56:08;;;;;;;3.28;1.10;;;;;;;;;;4934374;28;20066;-57
2024/01/09 12:58:43;;;;;;;2.60;1.02;;;;;;;;;;4988983;28;20051;-52
2024/01/09 13:01:11;;;;;;;4.53;1.60;;;;;;;;;;4956182;28;20050;-54
2024/01/09 13:03:38;;;;;;;3.00;0.95;;;;;;;;;;4973226;28;20084;-51
2024/01/09 13:06:06;;;;;;;2.85;1.23;;;;;;;;;;5007498;28;20054;-54
2024/01/09 13:08:38;;;;;;;7.45;1.75;;;;;;;;;;4978338;28;20139;-55
2024/01/09 13:11:07;;;;;;;2.28;1.08;;;;;;;;;;4981304;28;20354;-55
2024/01/09 13:13:37;;;;;;;1.27;0.77;;;;;;;;;;5039156;28;20050;-53
2024/01/09 13:16:06;;;;;;;3.13;1.27;;;;;;;;;;4938426;28;20114;-54
2024/01/09 13:18:33;;;;;;;2.88;1.00;;;;;;;;;;4952599;28;20230;-50
2024/01/09 13:21:00;;;;;;;2.67;1.25;;;;;;;;;;4974830;28;20051;-55
2024/01/09 13:23:28;;;;;;;3.10;1.35;;;;;;;;;;4999640;28;20155;-51
2024/01/09 13:25:54;;;;;;;0.63;0.52;;;;;;;;;;4952660;28;20250;-56
2024/01/09 13:28:21;;;;;;;4.10;1.13;;;;;;;;;;4966879;28;20058;-51
2024/01/09 13:30:52;;;;;;;3.67;1.50;;;;;;;;;;4962729;28;20066;-55
2024/01/09 13:33:18;;;;;;;3.38;1.35;;;;;;;;;;4970587;28;20066;-53
2024/01/09 13:35:45;;;;;;;4.47;1.38;;;;;;;;;;4956413;28;20054;-55
2024/01/09 13:38:12;;;;;;;6.80;0.85;;;;;;;;;;4955363;28;20059;-56
2024/01/09 13:40:39;;;;;;;4.30;1.48;;;;;;;;;;4984108;28;20047;-52
2024/01/09 13:43:06;;;;;;;11.27;4.65;;;;;;;;;;4980089;28;20065;-52
2024/01/09 13:45:34;;;;;;;4.75;1.95;;;;;;;;;;4969545;28;20090;-58
2024/01/09 13:48:02;;;;;;;4.60;1.58;;;;;;;;;;4954919;28;20050;-50
2024/01/09 13:50:29;;;;;;;3.45;1.05;;;;;;;;;;4980512;28;20139;-53
2024/01/09 13:52:55;;;;;;;3.00;1.20;;;;;;;;;;4963169;28;20085;-57
2024/01/09 13:55:22;;;;;;;4.70;2.17;;;;;;;;;;4973746;28;20058;-51
2024/01/09 13:57:49;;;;;;;2.53;0.95;;;;;;;;;;4955936;28;20047;-54
2024/01/09 14:00:21;;;;;;;5.30;1.75;;;;;;;;;;4954552;28;20054;-56
2024/01/09 14:02:47;;;;;;;1.90;0.90;;;;;;;;;;4986556;28;20133;-54
2024/01/09 14:05:16;;;;;;;1.98;1.15;;;;;;;;;;4936414;28;20046;-53
2024/01/09 14:07:46;;;;;;;3.22;1.40;;;;;;;;;;4950632;28;20054;-54
2024/01/09 14:10:13;;;;;;;3.47;1.30;;;;;;;;;;4967735;28;20062;-52
2024/01/09 14:12:40;;;;;;;4.97;1.55;;;;;;;;;;5032441;28;20106;-50
2024/01/09 14:15:09;;;;;;;35.78;10.48;;;;;;;;;;4960491;28;20074;-53
2024/01/09 14:17:36;;;;;;;;;;;;;;;;;;4981919;28;20087;-54
2024/01/09 14:20:03;;;;;;;10.02;3.10;;;;;;;;;;4952173;28;19957;-53
2024/01/09 14:22:32;;;;;;;6.20;1.88;;;;;;;;;;4968570;28;20065;-53
2024/01/09 14:24:59;;;;;;;4.13;1.33;;;;;;;;;;4953670;28;20133;-53
2024/01/09 14:27:29;;;;;;;3.60;1.38;;;;;;;;;;4972503;28;20058;-55
2024/01/09 14:29:56;;;;;;;2.03;1.02;;;;;;;;;;4951792;28;20072;-57
2024/01/09 14:32:23;;;;;;;7.55;2.75;;;;;;;;;;4976376;28;20055;-53
2024/01/09 14:34:51;;;;;;;2.97;1.23;;;;;;;;;;4959892;28;20062;-53
2024/01/09 14:37:18;;;;;;;24.63;9.82;;;;;;;;;;4998295;28;20058;-51
2024/01/09 14:39:47;;;;;;;7.25;2.60;;;;;;;;;;5011220;28;20085;-52
2024/01/09 14:42:13;;;;;;;;;;;;;;;;;;5002527;28;20177;-54
2024/01/09 14:44:40;;;;;;;3.65;1.20;;;;;;;;;;4969234;28;19922;-56
2024/01/09 14:47:10;;;;;;;9.15;2.85;;;;;;;;;;4959254;28;20078;-57
2024/01/09 14:49:36;;;;;;;43.75;12.63;;;;;;;;;;4965494;28;20134;-57